sensor_id;sensor_type;location;lat;lon;timestamp;P1;durP1;ratioP1;P2;durP2;ratioP2
15404;SDS011;7801;48.124;11.590;2023-02-12T00:01:34;3.53;;;3.33;;
15404;SDS011;7801;48.124;11.590;2023-02-12T00:03:59;2.50;;;2.40;;
15404;SDS011;7801;48.124;11.590;2023-02-12T00:06:25;3.40;;;3.20;;
15404;SDS011;7801;48.124;11.590;2023-02-12T00:08:51;2.83;;;2.73;;
15404;SDS011;7801;48.124;11.590;2023-02-12T00:11:19;3.77;;;3.57;;
15404;SDS011;7801;48.124;11.590;2023-02-12T00:13:50;3.57;;;3.37;;
15404;SDS011;7801;48.124;11.590;2023-02-12T00:16:16;3.70;;;3.43;;
15404;SDS011;7801;48.124;11.590;2023-02-12T00:18:47;5.33;;;4.90;;
15404;SDS011;7801;48.124;11.590;2023-02-12T00:21:15;3.87;;;3.67;;
15404;SDS011;7801;48.124;11.590;2023-02-12T00:23:41;4.87;;;4.47;;
15404;SDS011;7801;48.124;11.590;2023-02-12T00:26:10;4.20;;;3.90;;
15404;SDS011;7801;48.124;11.590;2023-02-12T00:28:37;5.47;;;4.10;;
15404;SDS011;7801;48.124;11.590;2023-02-12T00:31:04;3.77;;;3.53;;
15404;SDS011;7801;48.124;11.590;2023-02-12T00:33:33;4.93;;;4.60;;
15404;SDS011;7801;48.124;11.590;2023-02-12T00:35:58;5.47;;;4.97;;
15404;SDS011;7801;48.124;11.590;2023-02-12T00:38:24;4.60;;;4.30;;
15404;SDS011;7801;48.124;11.590;2023-02-12T00:40:49;3.70;;;3.50;;
15404;SDS011;7801;48.124;11.590;2023-02-12T00:43:15;5.10;;;4.70;;
15404;SDS011;7801;48.124;11.590;2023-02-12T00:45:40;5.10;;;4.63;;
15404;SDS011;7801;48.124;11.590;2023-02-12T00:48:05;4.63;;;4.27;;
15404;SDS011;7801;48.124;11.590;2023-02-12T00:50:31;3.90;;;3.57;;
15404;SDS011;7801;48.124;11.590;2023-02-12T00:52:56;3.53;;;3.23;;
15404;SDS011;7801;48.124;11.590;2023-02-12T00:55:21;3.83;;;3.63;;
15404;SDS011;7801;48.124;11.590;2023-02-12T00:57:47;5.30;;;4.90;;
15404;SDS011;7801;48.124;11.590;2023-02-12T01:00:13;3.90;;;3.60;;
15404;SDS011;7801;48.124;11.590;2023-02-12T01:02:39;5.80;;;4.23;;
15404;SDS011;7801;48.124;11.590;2023-02-12T01:05:05;5.13;;;4.83;;
15404;SDS011;7801;48.124;11.590;2023-02-12T01:07:30;3.97;;;3.77;;
15404;SDS011;7801;48.124;11.590;2023-02-12T01:09:55;4.57;;;4.23;;
15404;SDS011;7801;48.124;11.590;2023-02-12T01:12:21;4.63;;;4.33;;
15404;SDS011;7801;48.124;11.590;2023-02-12T01:14:46;2.77;;;2.67;;
15404;SDS011;7801;48.124;11.590;2023-02-12T01:17:11;4.93;;;4.53;;
15404;SDS011;7801;48.124;11.590;2023-02-12T01:19:37;4.50;;;4.10;;
15404;SDS011;7801;48.124;11.590;2023-02-12T01:22:02;4.00;;;3.67;;
15404;SDS011;7801;48.124;11.590;2023-02-12T01:24:28;4.80;;;4.50;;
15404;SDS011;7801;48.124;11.590;2023-02-12T01:26:53;5.10;;;4.70;;
15404;SDS011;7801;48.124;11.590;2023-02-12T01:29:18;5.40;;;4.23;;
15404;SDS011;7801;48.124;11.590;2023-02-12T01:31:44;5.30;;;4.90;;
15404;SDS011;7801;48.124;11.590;2023-02-12T01:34:09;5.70;;;4.57;;
15404;SDS011;7801;48.124;11.590;2023-02-12T01:36:35;4.67;;;4.40;;
15404;SDS011;7801;48.124;11.590;2023-02-12T01:39:01;4.73;;;4.43;;
15404;SDS011;7801;48.124;11.590;2023-02-12T01:41:34;5.27;;;4.97;;
15404;SDS011;7801;48.124;11.590;2023-02-12T01:44:07;5.23;;;4.73;;
15404;SDS011;7801;48.124;11.590;2023-02-12T01:46:36;4.30;;;4.10;;
15404;SDS011;7801;48.124;11.590;2023-02-12T01:49:02;4.43;;;4.07;;
15404;SDS011;7801;48.124;11.590;2023-02-12T01:51:31;6.57;;;4.40;;
15404;SDS011;7801;48.124;11.590;2023-02-12T01:53:57;4.93;;;4.60;;
15404;SDS011;7801;48.124;11.590;2023-02-12T01:56:26;5.40;;;4.90;;
15404;SDS011;7801;48.124;11.590;2023-02-12T01:58:53;5.40;;;4.37;;
15404;SDS011;7801;48.124;11.590;2023-02-12T02:01:22;8.83;;;5.17;;
15404;SDS011;7801;48.124;11.590;2023-02-12T02:03:54;4.83;;;4.40;;
15404;SDS011;7801;48.124;11.590;2023-02-12T02:06:26;4.47;;;4.17;;
15404;SDS011;7801;48.124;11.590;2023-02-12T02:08:55;3.77;;;3.47;;
15404;SDS011;7801;48.124;11.590;2023-02-12T02:11:21;3.93;;;3.73;;
15404;SDS011;7801;48.124;11.590;2023-02-12T02:14:18;4.67;;;4.27;;
15404;SDS011;7801;48.124;11.590;2023-02-12T02:30:19;4.47;;;3.80;;
15404;SDS011;7801;48.124;11.590;2023-02-12T02:32:58;3.50;;;3.30;;
15404;SDS011;7801;48.124;11.590;2023-02-12T02:35:27;3.30;;;2.93;;
15404;SDS011;7801;48.124;11.590;2023-02-12T02:41:14;4.73;;;4.43;;
15404;SDS011;7801;48.124;11.590;2023-02-12T02:43:45;4.07;;;3.87;;
15404;SDS011;7801;48.124;11.590;2023-02-12T02:46:15;4.27;;;3.97;;
15404;SDS011;7801;48.124;11.590;2023-02-12T02:48:45;4.93;;;4.47;;
15404;SDS011;7801;48.124;11.590;2023-02-12T02:51:25;3.87;;;3.67;;
15404;SDS011;7801;48.124;11.590;2023-02-12T02:54:04;4.63;;;4.23;;
15404;SDS011;7801;48.124;11.590;2023-02-12T02:56:37;4.03;;;3.60;;
15404;SDS011;7801;48.124;11.590;2023-02-12T02:59:06;3.83;;;3.63;;
15404;SDS011;7801;48.124;11.590;2023-02-12T03:01:50;4.40;;;4.07;;
15404;SDS011;7801;48.124;11.590;2023-02-12T03:04:22;3.10;;;2.90;;
15404;SDS011;7801;48.124;11.590;2023-02-12T03:06:55;4.77;;;3.07;;
15404;SDS011;7801;48.124;11.590;2023-02-12T03:09:35;4.30;;;4.00;;
15404;SDS011;7801;48.124;11.590;2023-02-12T03:12:12;4.23;;;3.83;;
15404;SDS011;7801;48.124;11.590;2023-02-12T03:14:44;3.13;;;3.00;;
15404;SDS011;7801;48.124;11.590;2023-02-12T03:17:25;4.33;;;4.03;;
15404;SDS011;7801;48.124;11.590;2023-02-12T03:20:00;3.23;;;2.93;;
15404;SDS011;7801;48.124;11.590;2023-02-12T03:22:32;3.33;;;3.13;;
15404;SDS011;7801;48.124;11.590;2023-02-12T03:25:08;2.97;;;2.87;;
15404;SDS011;7801;48.124;11.590;2023-02-12T03:27:41;3.60;;;3.07;;
15404;SDS011;7801;48.124;11.590;2023-02-12T03:30:10;4.57;;;4.23;;
15404;SDS011;7801;48.124;11.590;2023-02-12T03:35:11;5.03;;;4.57;;
15404;SDS011;7801;48.124;11.590;2023-02-12T03:37:45;3.50;;;2.67;;
15404;SDS011;7801;48.124;11.590;2023-02-12T03:40:20;4.63;;;4.23;;
15404;SDS011;7801;48.124;11.590;2023-02-12T03:45:28;3.03;;;2.83;;
15404;SDS011;7801;48.124;11.590;2023-02-12T03:48:05;4.57;;;4.17;;
15404;SDS011;7801;48.124;11.590;2023-02-12T03:50:41;3.93;;;3.60;;
15404;SDS011;7801;48.124;11.590;2023-02-12T03:53:23;2.73;;;2.63;;
15404;SDS011;7801;48.124;11.590;2023-02-12T03:55:51;4.73;;;4.30;;
15404;SDS011;7801;48.124;11.590;2023-02-12T03:58:22;2.70;;;2.60;;
15404;SDS011;7801;48.124;11.590;2023-02-12T04:00:52;5.00;;;3.67;;
15404;SDS011;7801;48.124;11.590;2023-02-12T04:03:17;3.93;;;3.57;;
15404;SDS011;7801;48.124;11.590;2023-02-12T04:05:43;3.40;;;3.20;;
15404;SDS011;7801;48.124;11.590;2023-02-12T04:08:08;7.37;;;5.13;;
15404;SDS011;7801;48.124;11.590;2023-02-12T04:13:23;5.30;;;4.23;;
15404;SDS011;7801;48.124;11.590;2023-02-12T04:15:59;3.93;;;3.70;;
15404;SDS011;7801;48.124;11.590;2023-02-12T04:23:49;3.57;;;3.37;;
15404;SDS011;7801;48.124;11.590;2023-02-12T04:26:47;3.20;;;3.10;;
15404;SDS011;7801;48.124;11.590;2023-02-12T04:35:22;4.17;;;3.93;;
15404;SDS011;7801;48.124;11.590;2023-02-12T04:37:58;4.33;;;4.03;;
15404;SDS011;7801;48.124;11.590;2023-02-12T04:40:29;4.77;;;4.37;;
15404;SDS011;7801;48.124;11.590;2023-02-12T04:42:55;8.50;;;3.77;;
15404;SDS011;7801;48.124;11.590;2023-02-12T04:45:24;5.77;;;3.70;;
15404;SDS011;7801;48.124;11.590;2023-02-12T04:47:52;4.10;;;3.80;;
15404;SDS011;7801;48.124;11.590;2023-02-12T04:50:17;3.20;;;3.03;;
15404;SDS011;7801;48.124;11.590;2023-02-12T04:52:43;4.83;;;4.53;;
15404;SDS011;7801;48.124;11.590;2023-02-12T04:55:09;3.90;;;3.67;;
15404;SDS011;7801;48.124;11.590;2023-02-12T04:57:34;4.83;;;4.47;;
15404;SDS011;7801;48.124;11.590;2023-02-12T04:59:59;5.07;;;4.67;;
15404;SDS011;7801;48.124;11.590;2023-02-12T05:02:25;4.93;;;4.63;;
15404;SDS011;7801;48.124;11.590;2023-02-12T05:04:50;3.90;;;3.67;;
15404;SDS011;7801;48.124;11.590;2023-02-12T05:07:15;4.07;;;3.83;;
15404;SDS011;7801;48.124;11.590;2023-02-12T05:09:41;4.83;;;3.83;;
15404;SDS011;7801;48.124;11.590;2023-02-12T05:12:06;3.27;;;3.10;;
15404;SDS011;7801;48.124;11.590;2023-02-12T05:14:32;3.33;;;3.23;;
15404;SDS011;7801;48.124;11.590;2023-02-12T05:16:57;3.73;;;3.53;;
15404;SDS011;7801;48.124;11.590;2023-02-12T05:19:22;3.67;;;3.40;;
15404;SDS011;7801;48.124;11.590;2023-02-12T05:21:48;2.67;;;2.53;;
15404;SDS011;7801;48.124;11.590;2023-02-12T05:24:15;3.93;;;3.47;;
15404;SDS011;7801;48.124;11.590;2023-02-12T05:26:40;3.43;;;3.23;;
15404;SDS011;7801;48.124;11.590;2023-02-12T05:29:05;9.70;;;4.20;;
15404;SDS011;7801;48.124;11.590;2023-02-12T05:31:31;2.40;;;2.30;;
15404;SDS011;7801;48.124;11.590;2023-02-12T05:33:56;3.70;;;3.43;;
15404;SDS011;7801;48.124;11.590;2023-02-12T05:36:22;3.77;;;3.57;;
15404;SDS011;7801;48.124;11.590;2023-02-12T05:38:48;3.57;;;3.37;;
15404;SDS011;7801;48.124;11.590;2023-02-12T05:41:16;3.77;;;3.47;;
15404;SDS011;7801;48.124;11.590;2023-02-12T05:43:47;4.03;;;3.77;;
15404;SDS011;7801;48.124;11.590;2023-02-12T05:46:13;4.30;;;3.97;;
15404;SDS011;7801;48.124;11.590;2023-02-12T05:48:39;4.73;;;4.33;;
15404;SDS011;7801;48.124;11.590;2023-02-12T05:51:06;3.33;;;3.13;;
15404;SDS011;7801;48.124;11.590;2023-02-12T05:53:33;2.97;;;2.87;;
15404;SDS011;7801;48.124;11.590;2023-02-12T05:56:12;4.60;;;4.27;;
15404;SDS011;7801;48.124;11.590;2023-02-12T05:58:41;3.53;;;3.40;;
15404;SDS011;7801;48.124;11.590;2023-02-12T06:01:19;3.87;;;3.57;;
15404;SDS011;7801;48.124;11.590;2023-02-12T06:03:49;5.03;;;4.63;;
15404;SDS011;7801;48.124;11.590;2023-02-12T06:06:14;2.87;;;2.77;;
15404;SDS011;7801;48.124;11.590;2023-02-12T06:08:40;3.07;;;2.87;;
15404;SDS011;7801;48.124;11.590;2023-02-12T06:11:07;5.00;;;4.67;;
15404;SDS011;7801;48.124;11.590;2023-02-12T06:13:35;4.30;;;4.07;;
15404;SDS011;7801;48.124;11.590;2023-02-12T06:16:00;3.43;;;3.23;;
15404;SDS011;7801;48.124;11.590;2023-02-12T06:18:26;4.00;;;3.80;;
15404;SDS011;7801;48.124;11.590;2023-02-12T06:20:52;4.60;;;4.00;;
15404;SDS011;7801;48.124;11.590;2023-02-12T06:23:21;6.43;;;5.20;;
15404;SDS011;7801;48.124;11.590;2023-02-12T06:25:48;5.13;;;4.83;;
15404;SDS011;7801;48.124;11.590;2023-02-12T06:28:14;4.23;;;3.93;;
15404;SDS011;7801;48.124;11.590;2023-02-12T06:30:39;5.27;;;4.87;;
15404;SDS011;7801;48.124;11.590;2023-02-12T06:33:04;5.33;;;4.00;;
15404;SDS011;7801;48.124;11.590;2023-02-12T06:35:30;4.67;;;4.37;;
15404;SDS011;7801;48.124;11.590;2023-02-12T06:37:55;6.37;;;4.63;;
15404;SDS011;7801;48.124;11.590;2023-02-12T06:40:21;4.90;;;4.60;;
15404;SDS011;7801;48.124;11.590;2023-02-12T06:42:46;7.93;;;5.67;;
15404;SDS011;7801;48.124;11.590;2023-02-12T06:45:11;5.97;;;4.43;;
15404;SDS011;7801;48.124;11.590;2023-02-12T06:47:37;6.33;;;5.73;;
15404;SDS011;7801;48.124;11.590;2023-02-12T06:50:02;5.10;;;4.73;;
15404;SDS011;7801;48.124;11.590;2023-02-12T06:52:28;5.00;;;4.70;;
15404;SDS011;7801;48.124;11.590;2023-02-12T06:54:54;5.43;;;5.03;;
15404;SDS011;7801;48.124;11.590;2023-02-12T06:57:19;6.93;;;5.60;;
15404;SDS011;7801;48.124;11.590;2023-02-12T06:59:45;4.30;;;4.10;;
15404;SDS011;7801;48.124;11.590;2023-02-12T07:02:10;4.30;;;4.10;;
15404;SDS011;7801;48.124;11.590;2023-02-12T07:04:38;4.77;;;4.40;;
15404;SDS011;7801;48.124;11.590;2023-02-12T07:07:04;4.43;;;4.13;;
15404;SDS011;7801;48.124;11.590;2023-02-12T07:09:30;4.83;;;4.53;;
15404;SDS011;7801;48.124;11.590;2023-02-12T07:11:57;4.10;;;3.90;;
15404;SDS011;7801;48.124;11.590;2023-02-12T07:14:22;6.10;;;5.60;;
15404;SDS011;7801;48.124;11.590;2023-02-12T07:16:48;5.33;;;4.93;;
15404;SDS011;7801;48.124;11.590;2023-02-12T07:19:13;5.87;;;5.47;;
15404;SDS011;7801;48.124;11.590;2023-02-12T07:21:40;3.93;;;3.73;;
15404;SDS011;7801;48.124;11.590;2023-02-12T07:24:05;5.77;;;5.30;;
15404;SDS011;7801;48.124;11.590;2023-02-12T07:26:32;5.80;;;5.40;;
15404;SDS011;7801;48.124;11.590;2023-02-12T07:28:57;5.13;;;4.73;;
15404;SDS011;7801;48.124;11.590;2023-02-12T07:31:23;5.00;;;4.33;;
15404;SDS011;7801;48.124;11.590;2023-02-12T07:33:48;3.40;;;3.20;;
15404;SDS011;7801;48.124;11.590;2023-02-12T07:36:18;5.03;;;4.63;;
15404;SDS011;7801;48.124;11.590;2023-02-12T07:38:44;7.87;;;6.57;;
15404;SDS011;7801;48.124;11.590;2023-02-12T07:41:11;6.10;;;5.37;;
15404;SDS011;7801;48.124;11.590;2023-02-12T07:43:43;4.63;;;4.33;;
15404;SDS011;7801;48.124;11.590;2023-02-12T07:46:15;6.13;;;5.10;;
15404;SDS011;7801;48.124;11.590;2023-02-12T07:48:44;6.07;;;5.57;;
15404;SDS011;7801;48.124;11.590;2023-02-12T07:51:11;6.83;;;5.20;;
15404;SDS011;7801;48.124;11.590;2023-02-12T07:53:39;5.30;;;4.80;;
15404;SDS011;7801;48.124;11.590;2023-02-12T07:56:06;5.10;;;4.00;;
15404;SDS011;7801;48.124;11.590;2023-02-12T07:58:43;6.13;;;5.63;;
15404;SDS011;7801;48.124;11.590;2023-02-12T08:01:20;3.63;;;3.33;;
15404;SDS011;7801;48.124;11.590;2023-02-12T08:03:47;4.67;;;4.43;;
15404;SDS011;7801;48.124;11.590;2023-02-12T08:06:15;4.83;;;4.50;;
15404;SDS011;7801;48.124;11.590;2023-02-12T08:08:42;6.47;;;6.07;;
15404;SDS011;7801;48.124;11.590;2023-02-12T08:11:08;5.73;;;5.33;;
15404;SDS011;7801;48.124;11.590;2023-02-12T08:13:35;6.00;;;4.60;;
15404;SDS011;7801;48.124;11.590;2023-02-12T08:16:01;5.37;;;5.07;;
15404;SDS011;7801;48.124;11.590;2023-02-12T08:18:29;6.37;;;5.87;;
15404;SDS011;7801;48.124;11.590;2023-02-12T08:21:00;5.93;;;5.40;;
15404;SDS011;7801;48.124;11.590;2023-02-12T08:23:26;7.53;;;6.87;;
15404;SDS011;7801;48.124;11.590;2023-02-12T08:25:51;5.03;;;4.60;;
15404;SDS011;7801;48.124;11.590;2023-02-12T08:28:17;4.93;;;4.63;;
15404;SDS011;7801;48.124;11.590;2023-02-12T08:30:42;5.20;;;4.90;;
15404;SDS011;7801;48.124;11.590;2023-02-12T08:33:07;7.90;;;5.53;;
15404;SDS011;7801;48.124;11.590;2023-02-12T08:35:33;6.03;;;5.57;;
15404;SDS011;7801;48.124;11.590;2023-02-12T08:37:58;7.57;;;6.30;;
15404;SDS011;7801;48.124;11.590;2023-02-12T08:40:23;6.33;;;5.90;;
15404;SDS011;7801;48.124;11.590;2023-02-12T08:42:49;6.80;;;6.23;;
15404;SDS011;7801;48.124;11.590;2023-02-12T08:45:14;5.93;;;5.50;;
15404;SDS011;7801;48.124;11.590;2023-02-12T08:47:39;7.03;;;6.10;;
15404;SDS011;7801;48.124;11.590;2023-02-12T08:50:05;4.37;;;4.03;;
15404;SDS011;7801;48.124;11.590;2023-02-12T08:52:31;5.10;;;4.63;;
15404;SDS011;7801;48.124;11.590;2023-02-12T08:54:59;4.80;;;4.40;;
15404;SDS011;7801;48.124;11.590;2023-02-12T08:57:24;5.47;;;5.07;;
15404;SDS011;7801;48.124;11.590;2023-02-12T08:59:49;5.77;;;5.30;;
15404;SDS011;7801;48.124;11.590;2023-02-12T09:02:14;7.43;;;6.20;;
15404;SDS011;7801;48.124;11.590;2023-02-12T09:04:40;4.07;;;3.87;;
15404;SDS011;7801;48.124;11.590;2023-02-12T09:07:05;5.23;;;4.83;;
15404;SDS011;7801;48.124;11.590;2023-02-12T09:09:30;4.00;;;3.80;;
15404;SDS011;7801;48.124;11.590;2023-02-12T09:11:56;6.47;;;5.87;;
15404;SDS011;7801;48.124;11.590;2023-02-12T09:14:21;4.63;;;4.43;;
15404;SDS011;7801;48.124;11.590;2023-02-12T09:16:49;5.73;;;5.13;;
15404;SDS011;7801;48.124;11.590;2023-02-12T09:19:17;5.97;;;5.53;;
15404;SDS011;7801;48.124;11.590;2023-02-12T09:21:42;5.70;;;5.20;;
15404;SDS011;7801;48.124;11.590;2023-02-12T09:24:08;5.60;;;5.20;;
15404;SDS011;7801;48.124;11.590;2023-02-12T09:26:34;6.63;;;6.13;;
15404;SDS011;7801;48.124;11.590;2023-02-12T09:29:00;9.67;;;6.90;;
15404;SDS011;7801;48.124;11.590;2023-02-12T09:31:27;7.07;;;6.43;;
15404;SDS011;7801;48.124;11.590;2023-02-12T09:33:56;6.13;;;5.53;;
15404;SDS011;7801;48.124;11.590;2023-02-12T09:36:22;9.27;;;5.47;;
15404;SDS011;7801;48.124;11.590;2023-02-12T09:38:48;4.27;;;4.07;;
15404;SDS011;7801;48.124;11.590;2023-02-12T09:41:29;4.67;;;4.27;;
15404;SDS011;7801;48.124;11.590;2023-02-12T09:44:10;6.33;;;4.13;;
15404;SDS011;7801;48.124;11.590;2023-02-12T09:46:47;3.77;;;3.47;;
15404;SDS011;7801;48.124;11.590;2023-02-12T09:52:16;2.00;;;1.90;;
15404;SDS011;7801;48.124;11.590;2023-02-12T09:54:44;2.13;;;2.07;;
15404;SDS011;7801;48.124;11.590;2023-02-12T09:57:15;1.47;;;1.47;;
15404;SDS011;7801;48.124;11.590;2023-02-12T09:59:47;1.67;;;1.57;;
15404;SDS011;7801;48.124;11.590;2023-02-12T10:02:17;0.60;;;0.60;;
15404;SDS011;7801;48.124;11.590;2023-02-12T10:04:44;0.17;;;0.17;;
15404;SDS011;7801;48.124;11.590;2023-02-12T10:15:53;0.50;;;0.50;;
15404;SDS011;7801;48.124;11.590;2023-02-12T10:18:43;0.30;;;0.30;;
15404;SDS011;7801;48.124;11.590;2023-02-12T10:21:13;0.60;;;0.60;;
15404;SDS011;7801;48.124;11.590;2023-02-12T10:27:16;0.47;;;0.47;;
15404;SDS011;7801;48.124;11.590;2023-02-12T10:29:44;0.63;;;0.63;;
15404;SDS011;7801;48.124;11.590;2023-02-12T10:34:46;0.50;;;0.50;;
15404;SDS011;7801;48.124;11.590;2023-02-12T10:42:48;0.50;;;0.50;;
15404;SDS011;7801;48.124;11.590;2023-02-12T10:45:20;0.70;;;0.70;;
15404;SDS011;7801;48.124;11.590;2023-02-12T10:47:50;0.70;;;0.70;;
15404;SDS011;7801;48.124;11.590;2023-02-12T10:50:21;0.77;;;0.77;;
15404;SDS011;7801;48.124;11.590;2023-02-12T10:52:56;0.80;;;0.80;;
15404;SDS011;7801;48.124;11.590;2023-02-12T10:57:52;0.70;;;0.70;;
15404;SDS011;7801;48.124;11.590;2023-02-12T11:00:23;1.33;;;1.27;;
15404;SDS011;7801;48.124;11.590;2023-02-12T11:06:11;3.20;;;1.60;;
15404;SDS011;7801;48.124;11.590;2023-02-12T11:08:42;1.43;;;1.33;;
15404;SDS011;7801;48.124;11.590;2023-02-12T11:11:09;1.50;;;1.50;;
15404;SDS011;7801;48.124;11.590;2023-02-12T11:13:35;1.77;;;1.67;;
15404;SDS011;7801;48.124;11.590;2023-02-12T11:16:03;3.70;;;2.33;;
15404;SDS011;7801;48.124;11.590;2023-02-12T11:18:30;0.90;;;0.90;;
15404;SDS011;7801;48.124;11.590;2023-02-12T11:21:09;1.47;;;1.43;;
15404;SDS011;7801;48.124;11.590;2023-02-12T11:23:40;1.03;;;1.03;;
15404;SDS011;7801;48.124;11.590;2023-02-12T11:28:55;1.30;;;1.13;;
15404;SDS011;7801;48.124;11.590;2023-02-12T11:31:29;0.93;;;0.93;;
15404;SDS011;7801;48.124;11.590;2023-02-12T11:36:34;0.60;;;0.60;;
15404;SDS011;7801;48.124;11.590;2023-02-12T11:39:02;0.20;;;0.20;;
15404;SDS011;7801;48.124;11.590;2023-02-12T11:44:07;0.63;;;0.63;;
15404;SDS011;7801;48.124;11.590;2023-02-12T11:46:35;0.57;;;0.57;;
15404;SDS011;7801;48.124;11.590;2023-02-12T11:49:01;0.20;;;0.10;;
15404;SDS011;7801;48.124;11.590;2023-02-12T11:51:29;0.97;;;0.97;;
15404;SDS011;7801;48.124;11.590;2023-02-12T11:53:56;0.40;;;0.40;;
15404;SDS011;7801;48.124;11.590;2023-02-12T11:56:24;0.30;;;0.30;;
15404;SDS011;7801;48.124;11.590;2023-02-12T11:59:10;0.33;;;0.33;;
15404;SDS011;7801;48.124;11.590;2023-02-12T12:01:43;0.10;;;0.10;;
15404;SDS011;7801;48.124;11.590;2023-02-12T12:04:11;0.40;;;0.40;;
15404;SDS011;7801;48.124;11.590;2023-02-12T12:06:43;0.83;;;0.83;;
15404;SDS011;7801;48.124;11.590;2023-02-12T12:12:08;0.90;;;0.90;;
15404;SDS011;7801;48.124;11.590;2023-02-12T12:20:40;0.50;;;0.50;;
15404;SDS011;7801;48.124;11.590;2023-02-12T12:26:06;0.43;;;0.43;;
15404;SDS011;7801;48.124;11.590;2023-02-12T12:28:39;0.40;;;0.40;;
15404;SDS011;7801;48.124;11.590;2023-02-12T12:31:31;0.57;;;0.40;;
15404;SDS011;7801;48.124;11.590;2023-02-12T12:55:35;0.60;;;0.60;;
15404;SDS011;7801;48.124;11.590;2023-02-12T12:58:17;0.53;;;0.53;;
15404;SDS011;7801;48.124;11.590;2023-02-12T13:03:30;1.30;;;1.03;;
15404;SDS011;7801;48.124;11.590;2023-02-12T13:06:31;1.10;;;1.10;;
15404;SDS011;7801;48.124;11.590;2023-02-12T13:19:52;1.00;;;0.93;;
15404;SDS011;7801;48.124;11.590;2023-02-12T13:25:19;0.63;;;0.53;;
15404;SDS011;7801;48.124;11.590;2023-02-12T13:27:52;1.30;;;1.30;;
15404;SDS011;7801;48.124;11.590;2023-02-12T13:30:24;1.10;;;1.10;;
15404;SDS011;7801;48.124;11.590;2023-02-12T13:35:36;1.90;;;1.70;;
15404;SDS011;7801;48.124;11.590;2023-02-12T13:38:06;1.00;;;1.00;;
15404;SDS011;7801;48.124;11.590;2023-02-12T13:40:33;0.90;;;0.90;;
15404;SDS011;7801;48.124;11.590;2023-02-12T13:45:51;1.07;;;1.07;;
15404;SDS011;7801;48.124;11.590;2023-02-12T13:56:44;1.43;;;1.33;;
15404;SDS011;7801;48.124;11.590;2023-02-12T14:01:56;1.60;;;1.53;;
15404;SDS011;7801;48.124;11.590;2023-02-12T14:07:10;3.40;;;2.27;;
15404;SDS011;7801;48.124;11.590;2023-02-12T14:09:44;2.33;;;2.13;;
15404;SDS011;7801;48.124;11.590;2023-02-12T14:15:06;2.30;;;2.10;;
15404;SDS011;7801;48.124;11.590;2023-02-12T14:17:48;1.97;;;1.87;;
15404;SDS011;7801;48.124;11.590;2023-02-12T14:20:22;2.60;;;2.40;;
15404;SDS011;7801;48.124;11.590;2023-02-12T14:27:48;2.40;;;2.30;;
15404;SDS011;7801;48.124;11.590;2023-02-12T14:37:50;1.77;;;1.77;;
15404;SDS011;7801;48.124;11.590;2023-02-12T14:40:36;1.23;;;1.23;;
15404;SDS011;7801;48.124;11.590;2023-02-12T14:48:53;2.47;;;2.03;;
15404;SDS011;7801;48.124;11.590;2023-02-12T14:53:58;2.53;;;2.33;;
15404;SDS011;7801;48.124;11.590;2023-02-12T14:56:25;1.57;;;1.47;;
15404;SDS011;7801;48.124;11.590;2023-02-12T14:58:51;2.57;;;2.47;;
15404;SDS011;7801;48.124;11.590;2023-02-12T15:01:29;1.70;;;1.60;;
15404;SDS011;7801;48.124;11.590;2023-02-12T15:03:58;1.83;;;1.73;;
15404;SDS011;7801;48.124;11.590;2023-02-12T15:06:37;1.50;;;1.40;;
15404;SDS011;7801;48.124;11.590;2023-02-12T15:09:10;2.40;;;1.73;;
15404;SDS011;7801;48.124;11.590;2023-02-12T15:11:44;2.17;;;2.07;;
15404;SDS011;7801;48.124;11.590;2023-02-12T15:14:21;3.83;;;2.60;;
15404;SDS011;7801;48.124;11.590;2023-02-12T15:16:57;1.90;;;1.80;;
15404;SDS011;7801;48.124;11.590;2023-02-12T15:22:40;1.87;;;1.77;;
15404;SDS011;7801;48.124;11.590;2023-02-12T15:25:24;1.47;;;1.33;;
15404;SDS011;7801;48.124;11.590;2023-02-12T15:27:56;2.13;;;1.93;;
15404;SDS011;7801;48.124;11.590;2023-02-12T15:30:25;1.17;;;1.17;;
15404;SDS011;7801;48.124;11.590;2023-02-12T15:32:54;2.13;;;2.03;;
15404;SDS011;7801;48.124;11.590;2023-02-12T15:35:26;0.90;;;0.90;;
15404;SDS011;7801;48.124;11.590;2023-02-12T15:37:54;2.67;;;2.37;;
15404;SDS011;7801;48.124;11.590;2023-02-12T15:40:21;1.77;;;1.67;;
15404;SDS011;7801;48.124;11.590;2023-02-12T15:42:58;1.93;;;1.83;;
15404;SDS011;7801;48.124;11.590;2023-02-12T15:45:26;3.17;;;2.67;;
15404;SDS011;7801;48.124;11.590;2023-02-12T15:48:01;1.37;;;1.37;;
15404;SDS011;7801;48.124;11.590;2023-02-12T15:50:52;1.90;;;1.80;;
15404;SDS011;7801;48.124;11.590;2023-02-12T15:53:22;2.10;;;1.83;;
15404;SDS011;7801;48.124;11.590;2023-02-12T15:55:50;1.50;;;1.50;;
15404;SDS011;7801;48.124;11.590;2023-02-12T16:00:49;2.33;;;2.23;;
15404;SDS011;7801;48.124;11.590;2023-02-12T16:03:26;2.33;;;2.23;;
15404;SDS011;7801;48.124;11.590;2023-02-12T16:05:56;2.57;;;2.40;;
15404;SDS011;7801;48.124;11.590;2023-02-12T16:08:27;1.83;;;1.77;;
15404;SDS011;7801;48.124;11.590;2023-02-12T16:10:54;1.30;;;1.30;;
15404;SDS011;7801;48.124;11.590;2023-02-12T16:13:28;2.40;;;2.30;;
15404;SDS011;7801;48.124;11.590;2023-02-12T16:21:30;4.60;;;2.93;;
15404;SDS011;7801;48.124;11.590;2023-02-12T16:23:59;3.53;;;3.23;;
15404;SDS011;7801;48.124;11.590;2023-02-12T16:26:25;2.03;;;1.93;;
15404;SDS011;7801;48.124;11.590;2023-02-12T16:28:52;3.30;;;3.03;;
15404;SDS011;7801;48.124;11.590;2023-02-12T16:31:20;3.43;;;2.53;;
15404;SDS011;7801;48.124;11.590;2023-02-12T16:33:48;2.93;;;2.83;;
15404;SDS011;7801;48.124;11.590;2023-02-12T16:38:55;3.27;;;3.07;;
15404;SDS011;7801;48.124;11.590;2023-02-12T16:43:50;3.17;;;2.97;;
15404;SDS011;7801;48.124;11.590;2023-02-12T16:46:52;4.03;;;3.43;;
15404;SDS011;7801;48.124;11.590;2023-02-12T16:49:21;3.23;;;2.97;;
15404;SDS011;7801;48.124;11.590;2023-02-12T16:51:48;3.50;;;3.30;;
15404;SDS011;7801;48.124;11.590;2023-02-12T16:54:35;5.27;;;4.77;;
15404;SDS011;7801;48.124;11.590;2023-02-12T16:57:00;2.47;;;2.37;;
15404;SDS011;7801;48.124;11.590;2023-02-12T16:59:25;3.67;;;3.37;;
15404;SDS011;7801;48.124;11.590;2023-02-12T17:02:11;3.70;;;3.50;;
15404;SDS011;7801;48.124;11.590;2023-02-12T17:04:38;3.50;;;3.30;;
15404;SDS011;7801;48.124;11.590;2023-02-12T17:07:08;7.07;;;4.20;;
15404;SDS011;7801;48.124;11.590;2023-02-12T17:09:41;3.00;;;2.87;;
15404;SDS011;7801;48.124;11.590;2023-02-12T17:12:07;2.30;;;2.20;;
15404;SDS011;7801;48.124;11.590;2023-02-12T17:14:32;3.10;;;2.87;;
15404;SDS011;7801;48.124;11.590;2023-02-12T17:16:57;3.33;;;3.23;;
15404;SDS011;7801;48.124;11.590;2023-02-12T17:19:23;3.73;;;3.53;;
15404;SDS011;7801;48.124;11.590;2023-02-12T17:21:48;4.00;;;3.80;;
15404;SDS011;7801;48.124;11.590;2023-02-12T17:24:23;3.37;;;2.80;;
15404;SDS011;7801;48.124;11.590;2023-02-12T17:26:51;3.73;;;3.53;;
15404;SDS011;7801;48.124;11.590;2023-02-12T17:29:17;3.50;;;3.30;;
15404;SDS011;7801;48.124;11.590;2023-02-12T17:31:44;4.37;;;4.07;;
15404;SDS011;7801;48.124;11.590;2023-02-12T17:34:11;7.87;;;5.10;;
15404;SDS011;7801;48.124;11.590;2023-02-12T17:36:38;3.47;;;3.17;;
15404;SDS011;7801;48.124;11.590;2023-02-12T17:39:04;6.43;;;5.83;;
15404;SDS011;7801;48.124;11.590;2023-02-12T17:41:31;3.03;;;2.90;;
15404;SDS011;7801;48.124;11.590;2023-02-12T17:43:57;3.27;;;3.07;;
15404;SDS011;7801;48.124;11.590;2023-02-12T17:46:23;3.73;;;3.53;;
15404;SDS011;7801;48.124;11.590;2023-02-12T17:48:50;3.90;;;3.77;;
15404;SDS011;7801;48.124;11.590;2023-02-12T17:51:15;4.30;;;3.90;;
15404;SDS011;7801;48.124;11.590;2023-02-12T17:53:42;4.03;;;3.73;;
15404;SDS011;7801;48.124;11.590;2023-02-12T17:56:12;5.17;;;4.00;;
15404;SDS011;7801;48.124;11.590;2023-02-12T17:58:39;4.77;;;4.37;;
15404;SDS011;7801;48.124;11.590;2023-02-12T18:01:06;5.03;;;3.23;;
15404;SDS011;7801;48.124;11.590;2023-02-12T18:03:33;4.47;;;4.00;;